TFM - Tactical Decision Aid (Experimental) INFO Settings
ID: Runway Winds: CIG/VIS Threshold: METAR Board: Map:

KMEI - Meridian-Key Field

Updated at: 1717 UTC 23 Oct 2017
Latest TAF at: 1508 UTC 23 Oct 2017

TAF Board

Time1658Z23/18Z23/19Z23/20Z23/21Z23/22Z23/23Z24/00Z24/01Z24/02Z24/03Z24/04Z24/05Z24/06Z
TypeOBSPRVLPRVLPRVLPRVLPRVLPRVLPRVLPRVLPRVLPRVLPRVLPRVLPRVL
VIS10>6>6>6>6>6>6>6>6>6>6>6>6>6
CIG262525----------------------
CoverOVCBKNBKNFEWFEWFEWFEWSKCSKCSKCSKCSKCSKCSKC
FltCatMVFRMVFRMVFRVFRVFRVFRVFRVFRVFRVFRVFRVFRVFRVFR
WX----------------------------
WDir310300300310310310310VRBVRBVRBVRBVRBVRBVRB
WSpd151212111111114444444
WGst201818----------------------
TAF
KMEI 231508Z 2315/2412 30012G18KT P6SM SCT015 BKN025
  FM232000 31011KT P6SM FEW050
  FM240000 VRB04KT P6SM SKC


METAR Board

Time23/06Z 23/07Z 23/08Z 23/09Z 23/10Z 23/11Z 23/12Z 23/13Z 23/14Z 23/15Z 23/16Z 23/17Z
VIS10 3 10 10 10 10 10 10 10 10 10 10
CIG36 -- 8 10 14 16 22 16 13 22 31 26
CoverBKNFEWOVCOVCOVCOVCOVCBKNOVCOVCBKNOVC
FltCatVFRMVFRIFRMVFRMVFRMVFRMVFRMVFRMVFRMVFRVFRMVFR
WX--BR--------------------
WDir280260300260300270280260260290290310
WSpd3 5 7 8 8 7 3 4 9 13 13 15
WGst-- -- -- -- -- -- -- -- 16 18 21 20
METAR
KMEI 230558Z 28003KT 10SM BKN036 18/17 A2999 RMK AO2 SLP152 60001 T01780172 10206 20178 402390178 51001
KMEI 230705Z 26005KT 3SM BR FEW007 17/16 A2998 RMK AO2 T01670161
KMEI 230758Z 30007KT 10SM OVC008 17/16 A2995 RMK AO2 SLP140 T01670161
KMEI 230858Z 26008KT 10SM OVC010 17/15 A2996 RMK AO2 SLP142 T01670150 55010
KMEI 230958Z 30008KT 10SM OVC014 17/14 A2996 RMK AO2 SLP142 T01670144
KMEI 231058Z 27007KT 10SM OVC016 16/14 A2999 RMK AO2 SLP152 T01610144
KMEI 231158Z 28003KT 10SM OVC022 16/14 A3000 RMK AO2 SLP158 70045 T01560139 10178 20156 53015
KMEI 231258Z 26004KT 10SM BKN016 BKN026 16/14 A3001 RMK AO2 SLP161 T01560139
KMEI 231358Z 26009G16KT 10SM BKN013 BKN025 OVC030 16/12 A3003 RMK AO2 SLP168 T01560122
KMEI 231458Z 29013G18KT 10SM OVC022 16/12 A3004 RMK AO2 SLP169 T01610117 51012
KMEI 231558Z 29013G21KT 10SM BKN031 17/11 A3004 RMK AO2 SLP168 T01720111
KMEI 231658Z 31015G20KT 10SM BKN026 OVC033 19/12 A3004 RMK AO2 SLP169 T01890122

TAF/METAR Board Legend

Potential Impact
  None Marginal Slight Moderate High
Visibility (sm) >5 3≤X≤5 2≤X<3 0.5≤X<2 <0.5
Ceiling (100 ft) >30 10≤X≤30 6≤X<10 2≤X<6 <2
Wind Speed (kt) <10 10≤X<20 20≤X<30 ≥30
Wind Gust (kt) <15 15≤X<25 25≤X<35 ≥35
Weather No Wx Reported VCTS -TS,-FZRA TS,FZRA +TS,+FZRA